sensor_id;sensor_type;location;lat;lon;timestamp;pressure;altitude;pressure_sealevel;temperature
22269;BMP280;11303;50.772;19.670;2024-01-30T00:00:14;100605.53;;;-1.81
22269;BMP280;11303;50.772;19.670;2024-01-30T00:02:16;100603.75;;;-1.81
22269;BMP280;11303;50.772;19.670;2024-01-30T00:04:18;100599.06;;;-1.84
22269;BMP280;11303;50.772;19.670;2024-01-30T00:06:20;100599.81;;;-1.83
22269;BMP280;11303;50.772;19.670;2024-01-30T00:08:22;100596.28;;;-1.82
22269;BMP280;11303;50.772;19.670;2024-01-30T00:10:24;100591.41;;;-1.84
22269;BMP280;11303;50.772;19.670;2024-01-30T00:12:26;100586.50;;;-1.85
22269;BMP280;11303;50.772;19.670;2024-01-30T00:14:27;100594.94;;;-1.85
22269;BMP280;11303;50.772;19.670;2024-01-30T00:16:29;100592.97;;;-1.83
22269;BMP280;11303;50.772;19.670;2024-01-30T00:18:31;100584.91;;;-1.80
22269;BMP280;11303;50.772;19.670;2024-01-30T00:20:32;100588.03;;;-1.77
22269;BMP280;11303;50.772;19.670;2024-01-30T00:22:34;100587.63;;;-1.74
22269;BMP280;11303;50.772;19.670;2024-01-30T00:24:36;100588.59;;;-1.75
22269;BMP280;11303;50.772;19.670;2024-01-30T00:26:37;100589.41;;;-1.75
22269;BMP280;11303;50.772;19.670;2024-01-30T00:28:39;100585.47;;;-1.77
22269;BMP280;11303;50.772;19.670;2024-01-30T00:30:40;100593.69;;;-1.75
22269;BMP280;11303;50.772;19.670;2024-01-30T00:32:42;100591.34;;;-1.77
22269;BMP280;11303;50.772;19.670;2024-01-30T00:34:43;100584.31;;;-1.82
22269;BMP280;11303;50.772;19.670;2024-01-30T00:36:45;100587.69;;;-1.88
22269;BMP280;11303;50.772;19.670;2024-01-30T00:38:47;100593.78;;;-1.89
22269;BMP280;11303;50.772;19.670;2024-01-30T00:40:48;100595.91;;;-1.92
22269;BMP280;11303;50.772;19.670;2024-01-30T00:42:50;100598.66;;;-1.94
22269;BMP280;11303;50.772;19.670;2024-01-30T00:44:52;100596.34;;;-2.02
22269;BMP280;11303;50.772;19.670;2024-01-30T00:46:54;100593.44;;;-2.06
22269;BMP280;11303;50.772;19.670;2024-01-30T00:48:55;100593.44;;;-2.12
22269;BMP280;11303;50.772;19.670;2024-01-30T00:50:57;100592.50;;;-2.18
22269;BMP280;11303;50.772;19.670;2024-01-30T00:52:58;100595.06;;;-2.25
22269;BMP280;11303;50.772;19.670;2024-01-30T00:55:00;100596.66;;;-2.24
22269;BMP280;11303;50.772;19.670;2024-01-30T00:57:03;100579.41;;;-2.28
22269;BMP280;11303;50.772;19.670;2024-01-30T00:59:04;100583.94;;;-2.30
22269;BMP280;11303;50.772;19.670;2024-01-30T01:01:06;100578.25;;;-2.33
22269;BMP280;11303;50.772;19.670;2024-01-30T01:03:09;100587.06;;;-2.35
22269;BMP280;11303;50.772;19.670;2024-01-30T01:05:10;100582.34;;;-2.32
22269;BMP280;11303;50.772;19.670;2024-01-30T01:07:12;100585.88;;;-2.26
22269;BMP280;11303;50.772;19.670;2024-01-30T01:09:14;100578.00;;;-2.18
22269;BMP280;11303;50.772;19.670;2024-01-30T01:11:15;100569.75;;;-2.13
22269;BMP280;11303;50.772;19.670;2024-01-30T01:13:17;100563.84;;;-2.07
22269;BMP280;11303;50.772;19.670;2024-01-30T01:15:18;100567.56;;;-2.03
22269;BMP280;11303;50.772;19.670;2024-01-30T01:17:20;100566.53;;;-2.02
22269;BMP280;11303;50.772;19.670;2024-01-30T01:19:22;100573.59;;;-1.97
22269;BMP280;11303;50.772;19.670;2024-01-30T01:21:23;100566.31;;;-1.93
22269;BMP280;11303;50.772;19.670;2024-01-30T01:23:25;100568.66;;;-1.92
22269;BMP280;11303;50.772;19.670;2024-01-30T01:25:26;100567.72;;;-1.98
22269;BMP280;11303;50.772;19.670;2024-01-30T01:27:28;100566.53;;;-2.02
22269;BMP280;11303;50.772;19.670;2024-01-30T01:29:30;100568.16;;;-2.07
22269;BMP280;11303;50.772;19.670;2024-01-30T01:31:31;100560.53;;;-2.14
22269;BMP280;11303;50.772;19.670;2024-01-30T01:33:33;100570.75;;;-2.21
22269;BMP280;11303;50.772;19.670;2024-01-30T01:35:35;100572.13;;;-2.25
22269;BMP280;11303;50.772;19.670;2024-01-30T01:37:36;100566.47;;;-2.27
22269;BMP280;11303;50.772;19.670;2024-01-30T01:39:38;100569.00;;;-2.27
22269;BMP280;11303;50.772;19.670;2024-01-30T01:41:40;100575.88;;;-2.27
22269;BMP280;11303;50.772;19.670;2024-01-30T01:43:41;100568.03;;;-2.26
22269;BMP280;11303;50.772;19.670;2024-01-30T01:45:43;100572.72;;;-2.23
22269;BMP280;11303;50.772;19.670;2024-01-30T01:47:46;100567.44;;;-2.21
22269;BMP280;11303;50.772;19.670;2024-01-30T01:49:48;100566.22;;;-2.19
22269;BMP280;11303;50.772;19.670;2024-01-30T01:51:51;100561.94;;;-2.18
22269;BMP280;11303;50.772;19.670;2024-01-30T01:53:55;100559.75;;;-2.15
22269;BMP280;11303;50.772;19.670;2024-01-30T01:55:57;100562.31;;;-2.15
22269;BMP280;11303;50.772;19.670;2024-01-30T01:57:59;100566.44;;;-2.13
22269;BMP280;11303;50.772;19.670;2024-01-30T02:00:01;100563.88;;;-2.13
22269;BMP280;11303;50.772;19.670;2024-01-30T02:02:04;100554.66;;;-2.15
22269;BMP280;11303;50.772;19.670;2024-01-30T02:04:07;100562.66;;;-2.11
22269;BMP280;11303;50.772;19.670;2024-01-30T02:06:09;100551.91;;;-2.13
22269;BMP280;11303;50.772;19.670;2024-01-30T02:08:10;100552.66;;;-2.06
22269;BMP280;11303;50.772;19.670;2024-01-30T02:10:12;100555.97;;;-2.05
22269;BMP280;11303;50.772;19.670;2024-01-30T02:12:14;100545.22;;;-2.07
22269;BMP280;11303;50.772;19.670;2024-01-30T02:14:16;100550.94;;;-2.12
22269;BMP280;11303;50.772;19.670;2024-01-30T02:16:17;100550.31;;;-2.14
22269;BMP280;11303;50.772;19.670;2024-01-30T02:18:20;100548.19;;;-2.17
22269;BMP280;11303;50.772;19.670;2024-01-30T02:20:25;100548.78;;;-2.22
22269;BMP280;11303;50.772;19.670;2024-01-30T02:22:26;100550.00;;;-2.24
22269;BMP280;11303;50.772;19.670;2024-01-30T02:24:28;100552.34;;;-2.23
22269;BMP280;11303;50.772;19.670;2024-01-30T02:26:30;100552.34;;;-2.23
22269;BMP280;11303;50.772;19.670;2024-01-30T02:28:31;100550.56;;;-2.22
22269;BMP280;11303;50.772;19.670;2024-01-30T02:30:33;100550.41;;;-2.27
22269;BMP280;11303;50.772;19.670;2024-01-30T02:32:34;100547.25;;;-2.29
22269;BMP280;11303;50.772;19.670;2024-01-30T02:34:36;100552.56;;;-2.31
22269;BMP280;11303;50.772;19.670;2024-01-30T02:36:37;100556.69;;;-2.30
22269;BMP280;11303;50.772;19.670;2024-01-30T02:38:39;100551.97;;;-2.33
22269;BMP280;11303;50.772;19.670;2024-01-30T02:40:41;100557.25;;;-2.35
22269;BMP280;11303;50.772;19.670;2024-01-30T02:42:42;100555.88;;;-2.37
22269;BMP280;11303;50.772;19.670;2024-01-30T02:44:45;100556.69;;;-2.30
22269;BMP280;11303;50.772;19.670;2024-01-30T02:46:47;100556.88;;;-2.32
22269;BMP280;11303;50.772;19.670;2024-01-30T02:48:48;100549.81;;;-2.36
22269;BMP280;11303;50.772;19.670;2024-01-30T02:50:50;100540.59;;;-2.37
22269;BMP280;11303;50.772;19.670;2024-01-30T02:52:51;100552.00;;;-2.40
22269;BMP280;11303;50.772;19.670;2024-01-30T02:54:53;100546.69;;;-2.38
22269;BMP280;11303;50.772;19.670;2024-01-30T02:56:54;100540.59;;;-2.37
22269;BMP280;11303;50.772;19.670;2024-01-30T02:58:56;100543.75;;;-2.42
22269;BMP280;11303;50.772;19.670;2024-01-30T03:00:57;100543.38;;;-2.45
22269;BMP280;11303;50.772;19.670;2024-01-30T03:02:59;100547.09;;;-2.48
22269;BMP280;11303;50.772;19.670;2024-01-30T03:05:01;100545.34;;;-2.47
22269;BMP280;11303;50.772;19.670;2024-01-30T03:07:02;100545.34;;;-2.47
22269;BMP280;11303;50.772;19.670;2024-01-30T03:09:05;100543.00;;;-2.49
22269;BMP280;11303;50.772;19.670;2024-01-30T03:11:06;100546.72;;;-2.52
22269;BMP280;11303;50.772;19.670;2024-01-30T03:13:08;100549.69;;;-2.55
22269;BMP280;11303;50.772;19.670;2024-01-30T03:15:09;100540.88;;;-2.59
22269;BMP280;11303;50.772;19.670;2024-01-30T03:17:11;100534.63;;;-2.63
22269;BMP280;11303;50.772;19.670;2024-01-30T03:19:13;100543.81;;;-2.62
22269;BMP280;11303;50.772;19.670;2024-01-30T03:21:14;100548.72;;;-2.67
22269;BMP280;11303;50.772;19.670;2024-01-30T03:23:16;100543.63;;;-2.74
22269;BMP280;11303;50.772;19.670;2024-01-30T03:25:17;100543.28;;;-2.77
22269;BMP280;11303;50.772;19.670;2024-01-30T03:27:19;100532.47;;;-2.79
22269;BMP280;11303;50.772;19.670;2024-01-30T03:29:21;100550.50;;;-2.81
22269;BMP280;11303;50.772;19.670;2024-01-30T03:31:22;100533.09;;;-2.77
22269;BMP280;11303;50.772;19.670;2024-01-30T03:33:24;100541.28;;;-2.75
22269;BMP280;11303;50.772;19.670;2024-01-30T03:35:25;100541.88;;;-2.73
22269;BMP280;11303;50.772;19.670;2024-01-30T03:37:27;100534.84;;;-2.71
22269;BMP280;11303;50.772;19.670;2024-01-30T03:39:30;100543.25;;;-2.71
22269;BMP280;11303;50.772;19.670;2024-01-30T03:41:32;100538.72;;;-2.62
22269;BMP280;11303;50.772;19.670;2024-01-30T03:43:33;100539.13;;;-2.58
22269;BMP280;11303;50.772;19.670;2024-01-30T03:45:35;100546.16;;;-2.54
22269;BMP280;11303;50.772;19.670;2024-01-30T03:47:36;100529.50;;;-2.56
22269;BMP280;11303;50.772;19.670;2024-01-30T03:49:38;100534.38;;;-2.48
22269;BMP280;11303;50.772;19.670;2024-01-30T03:51:40;100536.09;;;-2.42
22269;BMP280;11303;50.772;19.670;2024-01-30T03:53:42;100530.44;;;-2.44
22269;BMP280;11303;50.772;19.670;2024-01-30T03:55:44;100533.00;;;-2.44
22269;BMP280;11303;50.772;19.670;2024-01-30T03:57:45;100528.88;;;-2.45
22269;BMP280;11303;50.772;19.670;2024-01-30T03:59:47;100535.16;;;-2.47
22269;BMP280;11303;50.772;19.670;2024-01-30T04:01:48;100532.63;;;-2.47
22269;BMP280;11303;50.772;19.670;2024-01-30T04:03:50;100544.56;;;-2.48
22269;BMP280;11303;50.772;19.670;2024-01-30T04:05:52;100540.66;;;-2.51
22269;BMP280;11303;50.772;19.670;2024-01-30T04:07:54;100537.72;;;-2.54
22269;BMP280;11303;50.772;19.670;2024-01-30T04:09:55;100534.97;;;-2.53
22269;BMP280;11303;50.772;19.670;2024-01-30T04:11:57;100528.34;;;-2.54
22269;BMP280;11303;50.772;19.670;2024-01-30T04:13:58;100528.13;;;-2.52
22269;BMP280;11303;50.772;19.670;2024-01-30T04:16:00;100528.53;;;-2.55
22269;BMP280;11303;50.772;19.670;2024-01-30T04:18:05;100534.41;;;-2.55
22269;BMP280;11303;50.772;19.670;2024-01-30T04:20:07;100530.06;;;-2.54
22269;BMP280;11303;50.772;19.670;2024-01-30T04:22:09;100542.63;;;-2.53
22269;BMP280;11303;50.772;19.670;2024-01-30T04:24:11;100532.03;;;-2.50
22269;BMP280;11303;50.772;19.670;2024-01-30T04:26:12;100540.66;;;-2.51
22269;BMP280;11303;50.772;19.670;2024-01-30T04:28:14;100533.03;;;-2.57
22269;BMP280;11303;50.772;19.670;2024-01-30T04:30:16;100547.72;;;-2.59
22269;BMP280;11303;50.772;19.670;2024-01-30T04:32:17;100533.25;;;-2.65
22269;BMP280;11303;50.772;19.670;2024-01-30T04:34:19;100542.66;;;-2.66
22269;BMP280;11303;50.772;19.670;2024-01-30T04:36:20;100541.66;;;-2.72
22269;BMP280;11303;50.772;19.670;2024-01-30T04:38:22;100540.31;;;-2.74
22269;BMP280;11303;50.772;19.670;2024-01-30T04:40:24;100541.47;;;-2.70
22269;BMP280;11303;50.772;19.670;2024-01-30T04:42:25;100545.00;;;-2.71
22269;BMP280;11303;50.772;19.670;2024-01-30T04:44:27;100542.47;;;-2.71
22269;BMP280;11303;50.772;19.670;2024-01-30T04:46:29;100540.31;;;-2.74
22269;BMP280;11303;50.772;19.670;2024-01-30T04:48:30;100546.78;;;-2.78
22269;BMP280;11303;50.772;19.670;2024-01-30T04:50:32;100543.06;;;-2.76
22269;BMP280;11303;50.772;19.670;2024-01-30T04:52:33;100553.06;;;-2.74
22269;BMP280;11303;50.772;19.670;2024-01-30T04:54:35;100544.22;;;-2.72
22269;BMP280;11303;50.772;19.670;2024-01-30T04:56:37;100549.31;;;-2.72
22269;BMP280;11303;50.772;19.670;2024-01-30T04:58:39;100555.78;;;-2.69
22269;BMP280;11303;50.772;19.670;2024-01-30T05:00:40;100550.69;;;-2.69
22269;BMP280;11303;50.772;19.670;2024-01-30T05:02:42;100550.88;;;-2.71
22269;BMP280;11303;50.772;19.670;2024-01-30T05:04:43;100554.81;;;-2.68
22269;BMP280;11303;50.772;19.670;2024-01-30T05:06:46;100555.56;;;-2.68
22269;BMP280;11303;50.772;19.670;2024-01-30T05:08:47;100559.53;;;-2.65
22269;BMP280;11303;50.772;19.670;2024-01-30T05:10:49;100554.44;;;-2.65
22269;BMP280;11303;50.772;19.670;2024-01-30T05:12:50;100554.44;;;-2.65
22269;BMP280;11303;50.772;19.670;2024-01-30T05:14:52;100551.44;;;-2.69
22269;BMP280;11303;50.772;19.670;2024-01-30T05:16:54;100555.97;;;-2.71
22269;BMP280;11303;50.772;19.670;2024-01-30T05:18:56;100552.25;;;-2.75
22269;BMP280;11303;50.772;19.670;2024-01-30T05:21:02;100547.16;;;-2.68
22269;BMP280;11303;50.772;19.670;2024-01-30T05:23:04;100553.84;;;-2.67
22269;BMP280;11303;50.772;19.670;2024-01-30T05:25:05;100546.59;;;-2.63
22269;BMP280;11303;50.772;19.670;2024-01-30T05:27:07;100556.53;;;-2.62
22269;BMP280;11303;50.772;19.670;2024-01-30T05:29:09;100551.84;;;-2.58
22269;BMP280;11303;50.772;19.670;2024-01-30T05:31:10;100559.91;;;-2.61
22269;BMP280;11303;50.772;19.670;2024-01-30T05:33:12;100548.91;;;-2.69
22269;BMP280;11303;50.772;19.670;2024-01-30T05:35:14;100547.56;;;-2.71
22269;BMP280;11303;50.772;19.670;2024-01-30T05:37:16;100554.41;;;-2.72
22269;BMP280;11303;50.772;19.670;2024-01-30T05:39:19;100548.13;;;-2.69
22269;BMP280;11303;50.772;19.670;2024-01-30T05:41:21;100556.53;;;-2.62
22269;BMP280;11303;50.772;19.670;2024-01-30T05:43:22;100551.66;;;-2.57
22269;BMP280;11303;50.772;19.670;2024-01-30T05:45:24;100552.06;;;-2.60
22269;BMP280;11303;50.772;19.670;2024-01-30T05:47:26;100556.34;;;-2.60
22269;BMP280;11303;50.772;19.670;2024-01-30T05:49:28;100552.06;;;-2.60
22269;BMP280;11303;50.772;19.670;2024-01-30T05:51:29;100556.16;;;-2.59
22269;BMP280;11303;50.772;19.670;2024-01-30T05:53:31;100560.47;;;-2.59
22269;BMP280;11303;50.772;19.670;2024-01-30T05:55:33;100562.03;;;-2.58
22269;BMP280;11303;50.772;19.670;2024-01-30T05:57:34;100567.16;;;-2.65
22269;BMP280;11303;50.772;19.670;2024-01-30T05:59:36;100562.84;;;-2.71
22269;BMP280;11303;50.772;19.670;2024-01-30T06:01:48;100571.28;;;-2.77
22269;BMP280;11303;50.772;19.670;2024-01-30T06:03:50;100566.97;;;-2.83
22269;BMP280;11303;50.772;19.670;2024-01-30T06:05:52;100574.81;;;-2.85
22269;BMP280;11303;50.772;19.670;2024-01-30T06:07:53;100577.56;;;-2.87
22269;BMP280;11303;50.772;19.670;2024-01-30T06:09:55;100567.56;;;-2.88
22269;BMP280;11303;50.772;19.670;2024-01-30T06:11:57;100578.91;;;-2.91
22269;BMP280;11303;50.772;19.670;2024-01-30T06:13:59;100570.31;;;-2.96
22269;BMP280;11303;50.772;19.670;2024-01-30T06:16:00;100576.19;;;-2.96
22269;BMP280;11303;50.772;19.670;2024-01-30T06:18:02;100585.97;;;-2.93
22269;BMP280;11303;50.772;19.670;2024-01-30T06:20:04;100580.28;;;-2.95
22269;BMP280;11303;50.772;19.670;2024-01-30T06:22:06;100578.72;;;-2.89
22269;BMP280;11303;50.772;19.670;2024-01-30T06:24:08;100585.19;;;-2.87
22269;BMP280;11303;50.772;19.670;2024-01-30T06:26:10;100578.91;;;-2.91
22269;BMP280;11303;50.772;19.670;2024-01-30T06:28:11;100576.56;;;-2.86
22269;BMP280;11303;50.772;19.670;2024-01-30T06:30:13;100571.28;;;-2.77
22269;BMP280;11303;50.772;19.670;2024-01-30T06:32:15;100566.94;;;-2.70
22269;BMP280;11303;50.772;19.670;2024-01-30T06:34:17;100571.63;;;-2.60
22269;BMP280;11303;50.772;19.670;2024-01-30T06:36:18;100570.63;;;-2.53
22269;BMP280;11303;50.772;19.670;2024-01-30T06:38:20;100566.69;;;-2.42
22269;BMP280;11303;50.772;19.670;2024-01-30T06:40:22;100572.16;;;-2.32
22269;BMP280;11303;50.772;19.670;2024-01-30T06:42:24;100585.28;;;-2.28
22269;BMP280;11303;50.772;19.670;2024-01-30T06:44:26;100584.50;;;-2.35
22269;BMP280;11303;50.772;19.670;2024-01-30T06:46:29;100578.66;;;-2.42
22269;BMP280;11303;50.772;19.670;2024-01-30T06:48:30;100581.41;;;-2.51
22269;BMP280;11303;50.772;19.670;2024-01-30T06:50:32;100578.66;;;-2.56
22269;BMP280;11303;50.772;19.670;2024-01-30T06:52:33;100590.44;;;-2.55
22269;BMP280;11303;50.772;19.670;2024-01-30T06:54:35;100584.38;;;-2.54
22269;BMP280;11303;50.772;19.670;2024-01-30T06:56:38;100585.31;;;-2.48
22269;BMP280;11303;50.772;19.670;2024-01-30T06:58:39;100581.97;;;-2.42
22269;BMP280;11303;50.772;19.670;2024-01-30T07:00:41;100587.47;;;-2.32
22269;BMP280;11303;50.772;19.670;2024-01-30T07:02:43;100589.16;;;-2.19
22269;BMP280;11303;50.772;19.670;2024-01-30T07:04:44;100580.28;;;-2.03
22269;BMP280;11303;50.772;19.670;2024-01-30T07:06:48;100592.97;;;-1.83
22269;BMP280;11303;50.772;19.670;2024-01-30T07:08:50;100589.91;;;-1.59
22269;BMP280;11303;50.772;19.670;2024-01-30T07:10:51;100595.63;;;-1.32
22269;BMP280;11303;50.772;19.670;2024-01-30T07:13:01;100594.63;;;-1.06
22269;BMP280;11303;50.772;19.670;2024-01-30T07:15:03;100602.69;;;-0.84
22269;BMP280;11303;50.772;19.670;2024-01-30T07:17:05;100607.53;;;-0.57
22269;BMP280;11303;50.772;19.670;2024-01-30T07:19:07;100608.06;;;-0.30
22269;BMP280;11303;50.772;19.670;2024-01-30T07:21:12;100598.00;;;0.06
22269;BMP280;11303;50.772;19.670;2024-01-30T07:23:14;100598.06;;;0.41
22269;BMP280;11303;50.772;19.670;2024-01-30T07:25:17;100611.06;;;0.82
22269;BMP280;11303;50.772;19.670;2024-01-30T07:27:19;100611.06;;;1.17
22269;BMP280;11303;50.772;19.670;2024-01-30T07:29:21;100613.56;;;1.41
22269;BMP280;11303;50.772;19.670;2024-01-30T07:31:23;100608.34;;;1.48
22269;BMP280;11303;50.772;19.670;2024-01-30T07:33:25;100611.16;;;1.75
22269;BMP280;11303;50.772;19.670;2024-01-30T07:35:27;100606.59;;;1.77
22269;BMP280;11303;50.772;19.670;2024-01-30T07:37:29;100610.03;;;1.83
22269;BMP280;11303;50.772;19.670;2024-01-30T07:39:31;100610.38;;;1.86
22269;BMP280;11303;50.772;19.670;2024-01-30T07:41:32;100616.03;;;1.88
22269;BMP280;11303;50.772;19.670;2024-01-30T07:43:34;100600.81;;;1.98
22269;BMP280;11303;50.772;19.670;2024-01-30T07:45:36;100603.47;;;2.04
22269;BMP280;11303;50.772;19.670;2024-01-30T07:47:39;100606.06;;;2.21
22269;BMP280;11303;50.772;19.670;2024-01-30T07:49:40;100601.69;;;2.38
22269;BMP280;11303;50.772;19.670;2024-01-30T07:51:42;100600.78;;;2.44
22269;BMP280;11303;50.772;19.670;2024-01-30T07:53:44;100603.16;;;2.68
22269;BMP280;11303;50.772;19.670;2024-01-30T07:55:46;100608.06;;;2.86
22269;BMP280;11303;50.772;19.670;2024-01-30T07:57:48;100599.50;;;2.98
22269;BMP280;11303;50.772;19.670;2024-01-30T07:59:53;100596.53;;;2.89
22269;BMP280;11303;50.772;19.670;2024-01-30T08:01:54;100601.63;;;3.06
22269;BMP280;11303;50.772;19.670;2024-01-30T08:03:56;100607.53;;;3.06
22269;BMP280;11303;50.772;19.670;2024-01-30T08:05:58;100600.50;;;3.41
22269;BMP280;11303;50.772;19.670;2024-01-30T08:07:59;100611.06;;;3.67
22269;BMP280;11303;50.772;19.670;2024-01-30T08:10:01;100598.34;;;3.82
22269;BMP280;11303;50.772;19.670;2024-01-30T08:12:03;100594.88;;;3.93
22269;BMP280;11303;50.772;19.670;2024-01-30T08:14:05;100597.97;;;3.95
22269;BMP280;11303;50.772;19.670;2024-01-30T08:16:07;100601.88;;;4.03
22269;BMP280;11303;50.772;19.670;2024-01-30T08:18:12;100598.13;;;4.16
22269;BMP280;11303;50.772;19.670;2024-01-30T08:20:14;100607.50;;;3.95
22269;BMP280;11303;50.772;19.670;2024-01-30T08:22:16;100609.31;;;3.99
22269;BMP280;11303;50.772;19.670;2024-01-30T08:24:17;100598.59;;;4.13
22269;BMP280;11303;50.772;19.670;2024-01-30T08:26:19;100598.34;;;4.14
22269;BMP280;11303;50.772;19.670;2024-01-30T08:28:20;100599.69;;;4.17
22269;BMP280;11303;50.772;19.670;2024-01-30T08:30:22;100607.66;;;4.15
22269;BMP280;11303;50.772;19.670;2024-01-30T08:32:24;100605.00;;;4.10
22269;BMP280;11303;50.772;19.670;2024-01-30T08:34:25;100604.25;;;4.10
22269;BMP280;11303;50.772;19.670;2024-01-30T08:36:27;100601.78;;;4.20
22269;BMP280;11303;50.772;19.670;2024-01-30T08:38:28;100601.78;;;4.25
22269;BMP280;11303;50.772;19.670;2024-01-30T08:40:30;100597.97;;;4.33
22269;BMP280;11303;50.772;19.670;2024-01-30T08:42:32;100599.41;;;4.51
22269;BMP280;11303;50.772;19.670;2024-01-30T08:44:34;100602.53;;;4.58
22269;BMP280;11303;50.772;19.670;2024-01-30T08:46:36;100597.41;;;4.63
22269;BMP280;11303;50.772;19.670;2024-01-30T08:48:38;100604.56;;;4.56
22269;BMP280;11303;50.772;19.670;2024-01-30T08:50:39;100599.47;;;4.66
22269;BMP280;11303;50.772;19.670;2024-01-30T08:52:41;100594.53;;;4.60
22269;BMP280;11303;50.772;19.670;2024-01-30T08:54:43;100602.22;;;4.49
22269;BMP280;11303;50.772;19.670;2024-01-30T08:56:44;100600.97;;;4.62
22269;BMP280;11303;50.772;19.670;2024-01-30T08:58:46;100590.59;;;4.94
22269;BMP280;11303;50.772;19.670;2024-01-30T09:00:47;100599.22;;;5.31
22269;BMP280;11303;50.772;19.670;2024-01-30T09:02:49;100591.50;;;5.36
22269;BMP280;11303;50.772;19.670;2024-01-30T09:04:51;100592.84;;;5.59
22269;BMP280;11303;50.772;19.670;2024-01-30T09:06:53;100586.66;;;5.91
22269;BMP280;11303;50.772;19.670;2024-01-30T09:08:54;100576.78;;;6.39
22269;BMP280;11303;50.772;19.670;2024-01-30T09:10:56;100578.19;;;6.76
22269;BMP280;11303;50.772;19.670;2024-01-30T09:12:58;100575.19;;;7.14
22269;BMP280;11303;50.772;19.670;2024-01-30T09:14:59;100571.88;;;7.43
22269;BMP280;11303;50.772;19.670;2024-01-30T09:17:01;100569.09;;;7.34
22269;BMP280;11303;50.772;19.670;2024-01-30T09:19:04;100574.09;;;7.20
22269;BMP280;11303;50.772;19.670;2024-01-30T09:21:06;100577.97;;;7.28
22269;BMP280;11303;50.772;19.670;2024-01-30T09:23:07;100570.91;;;7.33
22269;BMP280;11303;50.772;19.670;2024-01-30T09:25:09;100562.78;;;7.50
22269;BMP280;11303;50.772;19.670;2024-01-30T09:27:11;100575.13;;;7.64
22269;BMP280;11303;50.772;19.670;2024-01-30T09:29:13;100565.28;;;7.61
22269;BMP280;11303;50.772;19.670;2024-01-30T09:31:14;100563.44;;;7.66
22269;BMP280;11303;50.772;19.670;2024-01-30T09:33:16;100565.75;;;7.68
22269;BMP280;11303;50.772;19.670;2024-01-30T09:35:18;100562.28;;;7.77
22269;BMP280;11303;50.772;19.670;2024-01-30T09:37:19;100564.91;;;8.02
22269;BMP280;11303;50.772;19.670;2024-01-30T09:39:24;100563.59;;;8.04
22269;BMP280;11303;50.772;19.670;2024-01-30T09:41:27;100557.75;;;7.93
22269;BMP280;11303;50.772;19.670;2024-01-30T09:43:32;100562.31;;;8.02
22269;BMP280;11303;50.772;19.670;2024-01-30T09:45:35;100558.59;;;8.13
22269;BMP280;11303;50.772;19.670;2024-01-30T09:47:45;100554.72;;;8.34
22269;BMP280;11303;50.772;19.670;2024-01-30T09:49:48;100556.25;;;8.60
22269;BMP280;11303;50.772;19.670;2024-01-30T09:51:51;100545.53;;;8.85
22269;BMP280;11303;50.772;19.670;2024-01-30T09:53:54;100555.38;;;8.83
22269;BMP280;11303;50.772;19.670;2024-01-30T09:55:56;100543.00;;;8.80
22269;BMP280;11303;50.772;19.670;2024-01-30T09:57:58;100542.16;;;8.66
22269;BMP280;11303;50.772;19.670;2024-01-30T10:00:01;100538.63;;;8.38
22269;BMP280;11303;50.772;19.670;2024-01-30T10:02:03;100540.69;;;8.41
22269;BMP280;11303;50.772;19.670;2024-01-30T10:04:06;100543.16;;;8.70
22269;BMP280;11303;50.772;19.670;2024-01-30T10:06:09;100536.63;;;8.72
22269;BMP280;11303;50.772;19.670;2024-01-30T10:08:11;100534.59;;;8.69
22269;BMP280;11303;50.772;19.670;2024-01-30T10:10:12;100525.63;;;8.62
22269;BMP280;11303;50.772;19.670;2024-01-30T10:12:15;100526.94;;;8.40
22269;BMP280;11303;50.772;19.670;2024-01-30T10:14:16;100526.03;;;8.50
22269;BMP280;11303;50.772;19.670;2024-01-30T10:16:18;100527.44;;;8.42
22269;BMP280;11303;50.772;19.670;2024-01-30T10:18:22;100527.63;;;8.46
22269;BMP280;11303;50.772;19.670;2024-01-30T10:20:24;100525.75;;;8.89
22269;BMP280;11303;50.772;19.670;2024-01-30T10:22:26;100516.75;;;9.20
22269;BMP280;11303;50.772;19.670;2024-01-30T10:24:28;100527.78;;;8.92
22269;BMP280;11303;50.772;19.670;2024-01-30T10:26:33;100523.78;;;9.00
22269;BMP280;11303;50.772;19.670;2024-01-30T10:28:35;100519.88;;;9.03
22269;BMP280;11303;50.772;19.670;2024-01-30T10:30:37;100516.28;;;9.31
22269;BMP280;11303;50.772;19.670;2024-01-30T10:32:39;100519.72;;;9.60
22269;BMP280;11303;50.772;19.670;2024-01-30T10:34:40;100512.69;;;9.88
22269;BMP280;11303;50.772;19.670;2024-01-30T10:36:46;100520.91;;;9.95
22269;BMP280;11303;50.772;19.670;2024-01-30T10:38:49;100510.38;;;10.00
22269;BMP280;11303;50.772;19.670;2024-01-30T10:40:59;100505.31;;;9.95
22269;BMP280;11303;50.772;19.670;2024-01-30T10:43:01;100495.38;;;10.11
22269;BMP280;11303;50.772;19.670;2024-01-30T10:45:07;100497.28;;;10.05
22269;BMP280;11303;50.772;19.670;2024-01-30T10:47:27;100495.78;;;9.63
22269;BMP280;11303;50.772;19.670;2024-01-30T10:49:30;100492.31;;;9.67
22269;BMP280;11303;50.772;19.670;2024-01-30T10:51:34;100478.47;;;9.86
22269;BMP280;11303;50.772;19.670;2024-01-30T10:53:37;100487.50;;;9.75
22269;BMP280;11303;50.772;19.670;2024-01-30T10:55:40;100488.25;;;9.89
22269;BMP280;11303;50.772;19.670;2024-01-30T10:57:42;100484.22;;;10.10
22269;BMP280;11303;50.772;19.670;2024-01-30T10:59:44;100480.63;;;10.20
22269;BMP280;11303;50.772;19.670;2024-01-30T11:01:47;100482.25;;;10.30
22269;BMP280;11303;50.772;19.670;2024-01-30T11:03:52;100481.63;;;10.33
22269;BMP280;11303;50.772;19.670;2024-01-30T11:05:59;100467.16;;;10.41
22269;BMP280;11303;50.772;19.670;2024-01-30T11:08:15;100470.50;;;10.55
22269;BMP280;11303;50.772;19.670;2024-01-30T11:10:24;100471.28;;;10.56
22269;BMP280;11303;50.772;19.670;2024-01-30T11:12:27;100463.09;;;10.48
22269;BMP280;11303;50.772;19.670;2024-01-30T11:14:30;100471.22;;;10.47
22269;BMP280;11303;50.772;19.670;2024-01-30T11:16:32;100462.31;;;10.62
22269;BMP280;11303;50.772;19.670;2024-01-30T11:18:35;100464.53;;;10.77
22269;BMP280;11303;50.772;19.670;2024-01-30T11:20:38;100464.81;;;10.53
22269;BMP280;11303;50.772;19.670;2024-01-30T11:22:48;100458.19;;;10.24
22269;BMP280;11303;50.772;19.670;2024-01-30T11:24:49;100450.72;;;10.09
22269;BMP280;11303;50.772;19.670;2024-01-30T11:27:02;100446.47;;;9.99